createdAt,value
2019-03-27T00:00:04.360Z,7.30
2019-03-27T00:01:11.337Z,7.20
2019-03-27T00:02:17.759Z,7.30
2019-03-27T00:03:22.600Z,7.30
2019-03-27T00:04:27.380Z,7.30
2019-03-27T00:05:32.179Z,7.30
2019-03-27T00:06:36.884Z,7.20
2019-03-27T00:07:41.705Z,7.20
2019-03-27T00:08:46.542Z,7.30
2019-03-27T00:09:51.369Z,7.20
2019-03-27T00:10:56.214Z,7.10
2019-03-27T00:12:01.053Z,7.10
2019-03-27T00:13:06.230Z,7.10
2019-03-27T00:14:11.091Z,7.00
2019-03-27T00:15:16.683Z,7.00
2019-03-27T00:16:21.402Z,6.80
2019-03-27T00:17:26.247Z,6.80
2019-03-27T00:18:30.963Z,6.70
2019-03-27T00:19:35.636Z,6.70
2019-03-27T00:20:40.353Z,6.70
2019-03-27T00:21:45.034Z,6.80
2019-03-27T00:22:49.863Z,6.80
2019-03-27T00:23:54.625Z,6.80
2019-03-27T00:24:59.742Z,6.80
2019-03-27T00:26:04.640Z,6.90
2019-03-27T00:27:09.428Z,6.80
2019-03-27T00:28:14.216Z,6.90
2019-03-27T00:29:18.965Z,6.80
2019-03-27T00:30:23.658Z,6.80
2019-03-27T00:31:29.195Z,6.80
2019-03-27T00:32:33.993Z,6.80
2019-03-27T00:33:38.829Z,6.80
2019-03-27T00:34:43.647Z,6.70
2019-03-27T00:35:48.431Z,6.80
2019-03-27T00:36:53.154Z,6.70
2019-03-27T00:37:57.967Z,6.80
2019-03-27T00:39:03.240Z,6.80
2019-03-27T00:40:08.857Z,6.80
2019-03-27T00:41:13.621Z,6.80
2019-03-27T00:42:18.744Z,6.80
2019-03-27T00:43:23.427Z,6.80
2019-03-27T00:44:28.336Z,6.80
2019-03-27T00:45:33.230Z,6.80
2019-03-27T00:46:38.022Z,6.80
2019-03-27T00:47:42.769Z,6.80
2019-03-27T00:48:47.568Z,6.80
2019-03-27T00:49:52.306Z,6.70
2019-03-27T00:50:57.077Z,6.80
2019-03-27T00:52:01.888Z,6.80
2019-03-27T00:53:06.610Z,6.80
2019-03-27T00:54:11.342Z,6.80
2019-03-27T00:55:16.236Z,6.80
2019-03-27T00:56:20.967Z,6.80
2019-03-27T00:57:25.753Z,6.90
2019-03-27T00:58:30.501Z,6.80
2019-03-27T00:59:35.188Z,6.80
2019-03-27T01:01:06.885Z,6.70
2019-03-27T01:02:11.619Z,6.80
2019-03-27T01:03:16.383Z,6.90
2019-03-27T01:04:21.239Z,6.80
2019-03-27T01:05:25.968Z,6.90
2019-03-27T01:06:30.708Z,6.90
2019-03-27T01:07:35.360Z,6.80
2019-03-27T01:08:40.125Z,6.90
2019-03-27T01:09:44.839Z,6.90
2019-03-27T01:10:50.019Z,6.80
2019-03-27T01:11:54.727Z,6.80
2019-03-27T01:12:59.435Z,6.90
2019-03-27T01:14:04.181Z,6.80
2019-03-27T01:15:09.685Z,6.80
2019-03-27T01:16:14.517Z,6.80
2019-03-27T01:17:19.448Z,6.80
2019-03-27T01:18:24.145Z,6.80
2019-03-27T01:19:28.948Z,6.80
2019-03-27T01:20:33.778Z,6.70
2019-03-27T01:21:38.479Z,6.70
2019-03-27T01:22:43.200Z,6.70
2019-03-27T01:23:47.976Z,6.80
2019-03-27T01:24:52.658Z,6.70
2019-03-27T01:25:57.454Z,6.80
2019-03-27T01:27:02.381Z,6.80
2019-03-27T01:28:07.205Z,6.80
2019-03-27T01:29:11.983Z,6.90
2019-03-27T01:30:17.044Z,6.80
2019-03-27T01:31:21.773Z,6.80
2019-03-27T01:32:26.540Z,6.80
2019-03-27T01:33:31.319Z,6.80
2019-03-27T01:34:36.029Z,6.80
2019-03-27T01:35:40.733Z,6.80
2019-03-27T01:36:45.586Z,6.80
2019-03-27T01:37:50.367Z,6.80
2019-03-27T01:38:55.120Z,6.90
2019-03-27T01:39:59.932Z,6.90
2019-03-27T01:41:05.079Z,6.90
2019-03-27T01:42:09.809Z,6.80
2019-03-27T01:43:14.551Z,6.90
2019-03-27T01:44:19.447Z,6.90
2019-03-27T01:45:24.351Z,6.90
2019-03-27T01:46:29.170Z,6.90
2019-03-27T01:47:33.922Z,6.90
2019-03-27T01:48:38.823Z,6.80
2019-03-27T01:49:43.754Z,6.90
2019-03-27T01:50:48.452Z,6.90
2019-03-27T01:51:53.211Z,6.90
2019-03-27T01:52:58.102Z,6.90
2019-03-27T01:54:02.960Z,7.00
2019-03-27T01:55:08.000Z,6.90
2019-03-27T01:56:12.839Z,6.90
2019-03-27T01:57:17.596Z,7.00
2019-03-27T01:58:22.495Z,6.90
2019-03-27T01:59:27.233Z,6.90
2019-03-27T02:00:31.959Z,6.90
2019-03-27T02:01:36.691Z,6.90
2019-03-27T02:02:41.393Z,6.90
2019-03-27T02:03:46.197Z,7.00
2019-03-27T02:04:50.916Z,7.00
2019-03-27T02:05:55.768Z,7.10
2019-03-27T02:07:00.584Z,7.00
2019-03-27T02:08:05.351Z,7.00
2019-03-27T02:09:10.056Z,7.00
2019-03-27T02:10:15.053Z,6.90
2019-03-27T02:11:19.845Z,6.90
2019-03-27T02:12:24.703Z,6.90
2019-03-27T02:13:29.479Z,6.90
2019-03-27T02:14:34.188Z,6.90
2019-03-27T02:15:39.245Z,6.90
2019-03-27T02:16:44.131Z,6.90
2019-03-27T02:17:48.951Z,7.00
2019-03-27T02:18:53.833Z,7.00
2019-03-27T02:19:58.632Z,7.00
2019-03-27T02:21:03.337Z,7.00
2019-03-27T02:22:30.511Z,7.00
2019-03-27T02:23:35.334Z,6.90
2019-03-27T02:24:40.045Z,6.90
2019-03-27T02:25:44.753Z,6.90
2019-03-27T02:26:49.758Z,6.90
2019-03-27T02:27:54.546Z,7.00
2019-03-27T02:28:59.421Z,7.00
2019-03-27T02:30:04.386Z,6.90
2019-03-27T02:31:09.285Z,7.00
2019-03-27T02:32:14.214Z,7.00
2019-03-27T02:33:19.074Z,7.00
2019-03-27T02:34:23.743Z,7.00
2019-03-27T02:35:28.867Z,7.00
2019-03-27T02:36:33.829Z,7.00
2019-03-27T02:37:38.571Z,6.90
2019-03-27T02:38:43.296Z,6.90
2019-03-27T02:39:48.137Z,7.00
2019-03-27T02:40:52.960Z,7.00
2019-03-27T02:41:57.807Z,7.00
2019-03-27T02:43:02.600Z,7.00
2019-03-27T02:44:07.318Z,7.00
2019-03-27T02:45:12.439Z,7.00
2019-03-27T02:46:24.359Z,7.00
2019-03-27T02:47:23.949Z,7.00
2019-03-27T02:48:28.702Z,7.00
2019-03-27T02:49:33.542Z,7.00
2019-03-27T02:50:38.415Z,7.10
2019-03-27T02:51:43.200Z,7.10
2019-03-27T02:52:48.054Z,7.10
2019-03-27T02:53:52.929Z,7.10
2019-03-27T02:54:57.934Z,7.10
2019-03-27T02:56:02.944Z,7.10
2019-03-27T02:57:07.790Z,7.10
2019-03-27T02:58:12.818Z,7.10
2019-03-27T02:59:17.701Z,7.20
2019-03-27T03:00:22.588Z,7.20
2019-03-27T03:01:27.524Z,7.20
2019-03-27T03:02:32.324Z,7.20
2019-03-27T03:03:37.132Z,7.10
2019-03-27T03:04:41.946Z,7.20
2019-03-27T03:05:46.770Z,7.10
2019-03-27T03:06:51.752Z,7.20
2019-03-27T03:07:56.615Z,7.20
2019-03-27T03:09:01.424Z,7.20
2019-03-27T03:10:06.891Z,7.10
2019-03-27T03:11:11.626Z,7.20
2019-03-27T03:12:16.580Z,7.10
2019-03-27T03:13:21.268Z,7.10
2019-03-27T03:14:26.135Z,7.10
2019-03-27T03:15:30.866Z,7.10
2019-03-27T03:16:42.793Z,7.10
2019-03-27T03:17:42.387Z,7.10
2019-03-27T03:18:47.133Z,7.10
2019-03-27T03:19:51.849Z,7.10
2019-03-27T03:20:56.763Z,7.20
2019-03-27T03:22:01.650Z,7.20
2019-03-27T03:23:06.575Z,7.20
2019-03-27T03:24:11.318Z,7.20
2019-03-27T03:25:16.585Z,7.20
2019-03-27T03:26:21.391Z,7.20
2019-03-27T03:27:26.107Z,7.30
2019-03-27T03:28:30.916Z,7.30
2019-03-27T03:29:35.786Z,7.30
2019-03-27T03:30:40.631Z,7.30
2019-03-27T03:31:45.514Z,7.20
2019-03-27T03:32:50.399Z,7.30
2019-03-27T03:33:55.350Z,7.30
2019-03-27T03:35:00.914Z,7.30
2019-03-27T03:36:05.884Z,7.30
2019-03-27T03:37:10.701Z,7.20
2019-03-27T03:38:15.505Z,7.20
2019-03-27T03:39:20.398Z,7.20
2019-03-27T03:40:25.576Z,7.20
2019-03-27T03:41:30.333Z,7.20
2019-03-27T03:42:35.278Z,7.30
2019-03-27T03:43:40.185Z,7.20
2019-03-27T03:44:44.895Z,7.30
2019-03-27T03:45:49.669Z,7.20
2019-03-27T03:47:00.005Z,7.30
2019-03-27T03:48:01.068Z,7.30
2019-03-27T03:49:05.997Z,7.20
2019-03-27T03:50:33.633Z,7.20
2019-03-27T03:51:38.787Z,7.20
2019-03-27T03:52:45.894Z,7.20
2019-03-27T03:53:50.297Z,7.20
2019-03-27T03:54:55.369Z,7.20
2019-03-27T03:56:01.010Z,7.20
2019-03-27T03:57:06.600Z,7.20
2019-03-27T03:58:12.456Z,7.20
2019-03-27T03:59:19.222Z,7.20
2019-03-27T04:00:24.241Z,7.20
2019-03-27T04:01:30.660Z,7.20
2019-03-27T04:02:36.939Z,7.10
2019-03-27T04:03:44.925Z,7.10
2019-03-27T04:04:50.357Z,7.20
2019-03-27T04:05:55.086Z,7.20
2019-03-27T04:06:59.774Z,7.20
2019-03-27T04:08:04.637Z,7.10
2019-03-27T04:09:09.520Z,7.10
2019-03-27T04:10:14.553Z,7.10
2019-03-27T04:11:19.360Z,7.20
2019-03-27T04:12:24.203Z,7.20
2019-03-27T04:13:29.019Z,7.20
2019-03-27T04:14:33.851Z,7.10
2019-03-27T04:15:38.841Z,7.10
2019-03-27T04:16:43.588Z,7.10
2019-03-27T04:17:48.336Z,7.10
2019-03-27T04:18:53.072Z,7.10
2019-03-27T04:19:57.959Z,7.10
2019-03-27T04:21:02.769Z,7.10
2019-03-27T04:22:07.592Z,7.10
2019-03-27T04:23:12.408Z,7.20
2019-03-27T04:24:17.309Z,7.20
2019-03-27T04:25:22.147Z,7.20
2019-03-27T04:26:27.049Z,7.20
2019-03-27T04:27:31.831Z,7.20
2019-03-27T04:28:36.617Z,7.20
2019-03-27T04:29:41.595Z,7.10
2019-03-27T04:30:46.492Z,7.10
2019-03-27T04:31:51.210Z,7.20
2019-03-27T04:32:56.069Z,7.20
2019-03-27T04:34:01.061Z,7.20
2019-03-27T04:35:06.251Z,7.20
2019-03-27T04:36:11.119Z,7.30
2019-03-27T04:37:15.935Z,7.30
2019-03-27T04:38:20.876Z,7.30
2019-03-27T04:39:25.699Z,7.30
2019-03-27T04:40:30.405Z,7.30
2019-03-27T04:41:35.173Z,7.30
2019-03-27T04:42:40.025Z,7.20
2019-03-27T04:43:44.836Z,7.20
2019-03-27T04:44:49.565Z,7.20
2019-03-27T04:45:54.399Z,7.20
2019-03-27T04:46:59.182Z,7.20
2019-03-27T04:48:03.944Z,7.20
2019-03-27T04:49:08.772Z,7.30
2019-03-27T04:50:13.593Z,7.20
2019-03-27T04:51:18.373Z,7.20
2019-03-27T04:52:23.175Z,7.20
2019-03-27T04:53:27.950Z,7.20
2019-03-27T04:54:32.811Z,7.30
2019-03-27T04:55:37.585Z,7.30
2019-03-27T04:56:42.332Z,7.30
2019-03-27T04:57:47.132Z,7.30
2019-03-27T04:58:52.031Z,7.20
2019-03-27T04:59:56.902Z,7.20
2019-03-27T05:01:01.947Z,7.20
2019-03-27T05:02:06.838Z,7.20
2019-03-27T05:03:11.907Z,7.30
2019-03-27T05:04:16.821Z,7.30
2019-03-27T05:05:21.559Z,7.30
2019-03-27T05:06:26.284Z,7.30
2019-03-27T05:07:31.156Z,7.30
2019-03-27T05:08:35.968Z,7.30
2019-03-27T05:09:40.709Z,7.30
2019-03-27T05:10:45.465Z,7.30
2019-03-27T05:11:50.227Z,7.20
2019-03-27T05:12:55.057Z,7.20
2019-03-27T05:13:59.985Z,7.20
2019-03-27T05:15:05.140Z,7.20
2019-03-27T05:16:09.835Z,7.20
2019-03-27T05:17:14.550Z,7.10
2019-03-27T05:18:19.263Z,7.10
2019-03-27T05:19:24.072Z,7.20
2019-03-27T05:20:28.931Z,7.10
2019-03-27T05:21:33.729Z,7.10
2019-03-27T05:22:38.447Z,7.10
2019-03-27T05:23:43.166Z,7.10
2019-03-27T05:24:47.944Z,7.10
2019-03-27T05:25:52.666Z,7.10
2019-03-27T05:26:57.447Z,7.10
2019-03-27T05:28:02.259Z,7.10
2019-03-27T05:29:06.983Z,7.10
2019-03-27T05:30:12.163Z,7.10
2019-03-27T05:31:16.962Z,7.10
2019-03-27T05:32:21.853Z,7.20
2019-03-27T05:33:26.730Z,7.20
2019-03-27T05:34:31.657Z,7.20
2019-03-27T05:35:36.495Z,7.20
2019-03-27T05:36:41.347Z,7.20
2019-03-27T05:37:46.037Z,7.20
2019-03-27T05:38:50.763Z,7.20
2019-03-27T05:39:55.463Z,7.20
2019-03-27T05:41:00.377Z,7.20
2019-03-27T05:42:05.287Z,7.20
2019-03-27T05:43:10.057Z,7.20
2019-03-27T05:44:14.938Z,7.30
2019-03-27T05:45:19.832Z,7.30
2019-03-27T05:46:26.564Z,7.30
2019-03-27T05:47:31.369Z,7.30
2019-03-27T05:48:36.171Z,7.30
2019-03-27T05:49:41.015Z,7.30
2019-03-27T05:50:45.847Z,7.40
2019-03-27T05:51:50.621Z,7.40
2019-03-27T05:52:55.370Z,7.40
2019-03-27T05:54:00.196Z,7.40
2019-03-27T05:55:05.412Z,7.40
2019-03-27T05:56:10.129Z,7.40
2019-03-27T05:57:14.969Z,7.40
2019-03-27T05:58:19.679Z,7.40
2019-03-27T05:59:24.432Z,7.40
2019-03-27T06:00:29.213Z,7.50
2019-03-27T06:01:34.048Z,7.50
2019-03-27T06:02:38.913Z,7.50
2019-03-27T06:03:43.646Z,7.50
2019-03-27T06:04:48.380Z,7.50
2019-03-27T06:05:53.122Z,7.50
2019-03-27T06:06:57.819Z,7.40
2019-03-27T06:08:02.610Z,7.40
2019-03-27T06:09:07.923Z,7.50
2019-03-27T06:10:16.128Z,7.50
2019-03-27T06:11:19.423Z,7.50
2019-03-27T06:12:24.139Z,7.50
2019-03-27T06:13:29.076Z,7.50
2019-03-27T06:14:33.809Z,7.40
2019-03-27T06:15:38.616Z,7.40
2019-03-27T06:16:43.723Z,7.40
2019-03-27T06:17:48.615Z,7.40
2019-03-27T06:18:53.572Z,7.40
2019-03-27T06:19:58.393Z,7.40
2019-03-27T06:21:03.143Z,7.40
2019-03-27T06:22:07.929Z,7.40
2019-03-27T06:23:12.795Z,7.40
2019-03-27T06:24:17.839Z,7.40
2019-03-27T06:25:22.687Z,7.40
2019-03-27T06:26:27.535Z,7.40
2019-03-27T06:27:32.239Z,7.40
2019-03-27T06:28:36.922Z,7.40
2019-03-27T06:29:41.957Z,7.50
2019-03-27T06:30:46.756Z,7.50
2019-03-27T06:31:51.527Z,7.50
2019-03-27T06:32:56.343Z,7.50
2019-03-27T06:34:01.140Z,7.50
2019-03-27T06:35:06.895Z,7.50
2019-03-27T06:36:11.565Z,7.50
2019-03-27T06:37:16.367Z,7.50
2019-03-27T06:38:21.247Z,7.60
2019-03-27T06:39:26.104Z,7.60
2019-03-27T06:40:30.820Z,7.60
2019-03-27T06:41:35.518Z,7.60
2019-03-27T06:42:40.319Z,7.60
2019-03-27T06:43:45.120Z,7.70
2019-03-27T06:44:49.953Z,7.70
2019-03-27T06:45:58.166Z,7.70
2019-03-27T06:47:01.326Z,7.70
2019-03-27T06:48:06.087Z,7.80
2019-03-27T06:49:10.877Z,7.80
2019-03-27T06:50:16.004Z,7.80
2019-03-27T06:51:20.793Z,7.70
2019-03-27T06:52:25.682Z,7.80
2019-03-27T06:53:30.501Z,7.70
2019-03-27T06:54:35.251Z,7.70
2019-03-27T06:55:40.095Z,7.70
2019-03-27T06:56:44.876Z,7.70
2019-03-27T06:57:49.726Z,7.70
2019-03-27T06:58:55.180Z,7.70
2019-03-27T07:00:00.001Z,7.80
2019-03-27T07:01:04.730Z,7.80
2019-03-27T07:02:09.571Z,7.60
2019-03-27T07:03:14.379Z,7.70
2019-03-27T07:04:19.246Z,7.80
2019-03-27T07:05:24.123Z,7.80
2019-03-27T07:06:28.791Z,7.80
2019-03-27T07:07:33.761Z,7.90
2019-03-27T07:08:38.459Z,7.80
2019-03-27T07:09:43.203Z,7.80
2019-03-27T07:10:47.908Z,7.90
2019-03-27T07:11:52.655Z,7.80
2019-03-27T07:12:57.434Z,7.80
2019-03-27T07:14:02.159Z,7.80
2019-03-27T07:15:07.718Z,7.80
2019-03-27T07:16:12.439Z,7.80
2019-03-27T07:17:17.185Z,7.80
2019-03-27T07:18:21.871Z,7.80
2019-03-27T07:19:26.605Z,7.90
2019-03-27T07:20:31.328Z,7.90
2019-03-27T07:21:36.293Z,7.80
2019-03-27T07:22:41.069Z,7.90
2019-03-27T07:23:45.795Z,7.90
2019-03-27T07:24:50.532Z,7.90
2019-03-27T07:25:55.232Z,7.90
2019-03-27T07:27:00.049Z,7.90
2019-03-27T07:28:05.515Z,7.90
2019-03-27T07:29:10.193Z,7.90
2019-03-27T07:30:15.301Z,7.90
2019-03-27T07:31:20.045Z,7.90
2019-03-27T07:32:24.922Z,7.90
2019-03-27T07:33:29.783Z,7.90
2019-03-27T07:34:34.531Z,7.80
2019-03-27T07:35:39.332Z,7.80
2019-03-27T07:36:44.193Z,7.80
2019-03-27T07:37:49.081Z,7.80
2019-03-27T07:38:53.879Z,7.80
2019-03-27T07:39:58.697Z,7.80
2019-03-27T07:41:03.619Z,7.80
2019-03-27T07:42:08.472Z,7.80
2019-03-27T07:43:13.277Z,7.80
2019-03-27T07:44:18.069Z,7.80
2019-03-27T07:45:23.005Z,7.90
2019-03-27T07:46:27.854Z,7.80
2019-03-27T07:47:32.635Z,7.90
2019-03-27T07:48:37.442Z,7.80
2019-03-27T07:49:42.508Z,7.80
2019-03-27T07:50:47.277Z,7.80
2019-03-27T07:51:52.027Z,7.80
2019-03-27T07:52:57.319Z,7.90
2019-03-27T07:54:02.178Z,7.80
2019-03-27T07:55:18.681Z,7.90
2019-03-27T07:56:14.001Z,7.90
2019-03-27T07:57:18.727Z,8.00
2019-03-27T07:58:23.423Z,8.00
2019-03-27T07:59:28.119Z,8.00
2019-03-27T08:00:32.952Z,8.00
2019-03-27T08:01:37.707Z,7.90
2019-03-27T08:02:42.891Z,8.00
2019-03-27T08:03:47.699Z,7.90
2019-03-27T08:04:52.386Z,8.00
2019-03-27T08:05:57.119Z,8.00
2019-03-27T08:07:01.985Z,7.90
2019-03-27T08:08:06.808Z,8.00
2019-03-27T08:09:11.615Z,8.00
2019-03-27T08:10:16.533Z,8.00
2019-03-27T08:11:21.466Z,8.10
2019-03-27T08:12:26.365Z,8.10
2019-03-27T08:13:31.219Z,8.10
2019-03-27T08:14:36.116Z,8.10
2019-03-27T08:15:41.082Z,8.10
2019-03-27T08:16:45.923Z,8.10
2019-03-27T08:17:50.607Z,8.20
2019-03-27T08:19:06.891Z,8.10
2019-03-27T08:20:01.686Z,8.00
2019-03-27T08:21:06.515Z,8.10
2019-03-27T08:22:11.244Z,8.10
2019-03-27T08:23:15.999Z,8.20
2019-03-27T08:24:20.856Z,8.20
2019-03-27T08:25:25.637Z,8.20
2019-03-27T08:26:30.454Z,8.30
2019-03-27T08:27:35.162Z,8.30
2019-03-27T08:28:39.851Z,8.30
2019-03-27T08:29:44.713Z,8.40
2019-03-27T08:30:49.510Z,8.30
2019-03-27T08:31:54.243Z,8.30
2019-03-27T08:32:59.085Z,8.30
2019-03-27T08:34:03.888Z,8.30
2019-03-27T08:35:08.897Z,8.40
2019-03-27T08:36:13.585Z,8.40
2019-03-27T08:37:18.428Z,8.40
2019-03-27T08:38:23.229Z,8.40
2019-03-27T08:39:27.945Z,8.40
2019-03-27T08:40:32.624Z,8.50
2019-03-27T08:41:37.340Z,8.50
2019-03-27T08:42:42.250Z,8.50
2019-03-27T08:43:46.918Z,8.40
2019-03-27T08:44:51.634Z,8.40
2019-03-27T08:45:56.414Z,8.50
2019-03-27T08:47:01.112Z,8.50
2019-03-27T08:48:05.993Z,8.50
2019-03-27T08:49:21.343Z,8.50
2019-03-27T08:50:17.552Z,8.60
2019-03-27T08:51:22.321Z,8.60
2019-03-27T08:52:27.161Z,8.60
2019-03-27T08:53:32.098Z,8.60
2019-03-27T08:54:36.903Z,8.60
2019-03-27T08:55:41.787Z,8.60
2019-03-27T08:56:46.511Z,8.70
2019-03-27T08:57:51.208Z,8.70
2019-03-27T08:58:55.958Z,8.60
2019-03-27T09:00:02.635Z,8.60
2019-03-27T09:01:07.351Z,8.60
2019-03-27T09:02:12.427Z,8.60
2019-03-27T09:03:17.826Z,8.60
2019-03-27T09:04:22.689Z,8.60
2019-03-27T09:05:27.571Z,8.70
2019-03-27T09:06:34.003Z,8.70
2019-03-27T09:07:38.675Z,8.80
2019-03-27T09:08:43.495Z,8.80
2019-03-27T09:09:48.362Z,8.80
2019-03-27T09:10:53.164Z,8.80
2019-03-27T09:11:57.897Z,8.80
2019-03-27T09:13:02.707Z,8.80
2019-03-27T09:14:07.415Z,8.80
2019-03-27T09:15:12.469Z,8.80
2019-03-27T09:16:17.291Z,8.90
2019-03-27T09:17:22.127Z,8.80
2019-03-27T09:18:26.864Z,8.80
2019-03-27T09:19:35.982Z,8.80
2019-03-27T09:20:37.919Z,8.90
2019-03-27T09:21:42.603Z,9.00
2019-03-27T09:22:47.620Z,9.00
2019-03-27T09:23:52.330Z,9.00
2019-03-27T09:24:57.479Z,9.00
2019-03-27T09:26:02.253Z,9.10
2019-03-27T09:27:06.966Z,9.20
2019-03-27T09:28:11.628Z,9.20
2019-03-27T09:29:16.311Z,9.10
2019-03-27T09:30:21.453Z,9.10
2019-03-27T09:31:26.201Z,9.20
2019-03-27T09:32:30.995Z,9.30
2019-03-27T09:33:35.753Z,9.30
2019-03-27T09:34:40.535Z,9.30
2019-03-27T09:35:45.312Z,9.30
2019-03-27T09:36:50.240Z,9.30
2019-03-27T09:37:54.931Z,9.30
2019-03-27T09:38:59.761Z,9.30
2019-03-27T09:40:04.804Z,9.30
2019-03-27T09:41:09.544Z,9.30
2019-03-27T09:42:14.236Z,9.30
2019-03-27T09:43:19.059Z,9.30
2019-03-27T09:44:23.928Z,9.40
2019-03-27T09:45:28.799Z,9.40
2019-03-27T09:46:33.573Z,9.50
2019-03-27T09:47:38.292Z,9.60
2019-03-27T09:48:43.126Z,9.60
2019-03-27T09:49:49.934Z,9.50
2019-03-27T09:50:54.361Z,9.60
2019-03-27T09:51:59.136Z,9.60
2019-03-27T09:53:03.859Z,9.60
2019-03-27T09:54:08.543Z,9.60
2019-03-27T09:55:13.512Z,9.60
2019-03-27T09:56:19.591Z,9.70
2019-03-27T09:57:24.599Z,9.60
2019-03-27T09:58:29.491Z,9.60
2019-03-27T09:59:34.204Z,9.60
2019-03-27T10:01:01.837Z,9.60
2019-03-27T10:02:06.634Z,9.70
2019-03-27T10:03:11.477Z,9.70
2019-03-27T10:04:16.163Z,9.80
2019-03-27T10:05:20.898Z,9.80
2019-03-27T10:06:25.639Z,9.80
2019-03-27T10:07:30.418Z,9.90
2019-03-27T10:08:35.149Z,9.90
2019-03-27T10:09:39.993Z,10.00
2019-03-27T10:10:44.713Z,10.00
2019-03-27T10:11:49.439Z,10.00
2019-03-27T10:12:54.122Z,10.00
2019-03-27T10:13:58.889Z,10.00
2019-03-27T10:15:03.869Z,10.00
2019-03-27T10:16:08.705Z,10.10
2019-03-27T10:17:13.557Z,10.10
2019-03-27T10:18:18.404Z,10.00
2019-03-27T10:19:23.258Z,10.00
2019-03-27T10:20:27.945Z,9.90
2019-03-27T10:21:32.640Z,9.80
2019-03-27T10:22:37.385Z,9.80
2019-03-27T10:23:42.088Z,9.80
2019-03-27T10:24:46.807Z,9.80
2019-03-27T10:25:51.583Z,9.80
2019-03-27T10:26:56.264Z,9.80
2019-03-27T10:28:01.078Z,9.80
2019-03-27T10:29:05.795Z,9.70
2019-03-27T10:30:11.131Z,9.80
2019-03-27T10:31:15.835Z,9.80
2019-03-27T10:32:20.605Z,9.80
2019-03-27T10:33:25.446Z,9.80
2019-03-27T10:34:30.288Z,9.80
2019-03-27T10:35:35.018Z,9.70
2019-03-27T10:36:39.744Z,9.70
2019-03-27T10:37:44.562Z,9.70
2019-03-27T10:38:49.255Z,9.70
2019-03-27T10:39:54.034Z,9.80
2019-03-27T10:40:58.887Z,9.70
2019-03-27T10:42:03.889Z,9.80
2019-03-27T10:43:08.666Z,9.80
2019-03-27T10:44:13.397Z,9.80
2019-03-27T10:45:18.238Z,9.70
2019-03-27T10:46:23.036Z,9.80
2019-03-27T10:47:27.882Z,9.80
2019-03-27T10:48:32.688Z,9.80
2019-03-27T10:49:37.549Z,9.80
2019-03-27T10:50:42.328Z,9.80
2019-03-27T10:51:47.055Z,9.80
2019-03-27T10:52:52.275Z,9.90
2019-03-27T10:53:57.109Z,10.00
2019-03-27T10:55:01.787Z,10.10
2019-03-27T10:56:06.609Z,10.10
2019-03-27T10:57:11.298Z,10.10
2019-03-27T10:58:16.029Z,10.10
2019-03-27T10:59:21.009Z,10.00
2019-03-27T11:00:25.752Z,10.10
2019-03-27T11:01:30.435Z,10.10
2019-03-27T11:02:35.124Z,10.20
2019-03-27T11:03:40.381Z,10.20
2019-03-27T11:04:45.188Z,10.30
2019-03-27T11:05:49.893Z,10.20
2019-03-27T11:06:54.631Z,10.20
2019-03-27T11:07:59.323Z,10.20
2019-03-27T11:09:06.147Z,10.10
2019-03-27T11:10:11.017Z,10.20
2019-03-27T11:11:15.793Z,10.20
2019-03-27T11:12:20.642Z,10.20
2019-03-27T11:13:25.295Z,10.30
2019-03-27T11:14:37.711Z,10.10
2019-03-27T11:15:36.637Z,10.20
2019-03-27T11:16:41.448Z,10.20
2019-03-27T11:17:46.193Z,10.20
2019-03-27T11:18:51.018Z,10.20
2019-03-27T11:19:55.841Z,10.30
2019-03-27T11:21:00.645Z,10.30
2019-03-27T11:22:05.573Z,10.30
2019-03-27T11:23:10.349Z,10.30
2019-03-27T11:24:15.196Z,10.30
2019-03-27T11:25:19.981Z,10.30
2019-03-27T11:26:24.729Z,10.30
2019-03-27T11:27:29.453Z,10.30
2019-03-27T11:28:34.277Z,10.30
2019-03-27T11:29:39.111Z,10.40
2019-03-27T11:30:48.131Z,10.30
2019-03-27T11:31:51.130Z,10.40
2019-03-27T11:32:55.791Z,10.40
2019-03-27T11:34:00.574Z,10.50
2019-03-27T11:35:06.309Z,10.40
2019-03-27T11:36:10.989Z,10.50
2019-03-27T11:37:15.675Z,10.50
2019-03-27T11:38:20.507Z,10.60
2019-03-27T11:39:25.284Z,10.60
2019-03-27T11:40:30.113Z,10.60
2019-03-27T11:41:35.326Z,10.60
2019-03-27T11:42:40.038Z,10.70
2019-03-27T11:43:54.678Z,10.70
2019-03-27T11:44:51.461Z,10.80
2019-03-27T11:45:56.199Z,10.80
2019-03-27T11:47:00.941Z,11.00
2019-03-27T11:48:08.177Z,11.10
2019-03-27T11:49:12.564Z,11.20
2019-03-27T11:50:17.514Z,11.40
2019-03-27T11:51:22.343Z,11.40
2019-03-27T11:52:29.654Z,11.50
2019-03-27T11:53:33.610Z,11.50
2019-03-27T11:54:38.281Z,11.50
2019-03-27T11:55:43.073Z,11.50
2019-03-27T11:56:47.855Z,11.50
2019-03-27T11:57:52.693Z,11.40
2019-03-27T11:58:57.550Z,11.30
2019-03-27T12:00:02.352Z,11.30
2019-03-27T12:01:07.162Z,11.20
2019-03-27T12:02:11.965Z,11.10
2019-03-27T12:03:17.781Z,11.00
2019-03-27T12:04:22.578Z,11.00
2019-03-27T12:05:27.349Z,10.90
2019-03-27T12:06:32.151Z,10.80
2019-03-27T12:07:37.001Z,10.80
2019-03-27T12:08:41.789Z,10.80
2019-03-27T12:09:46.591Z,10.80
2019-03-27T12:10:51.279Z,10.70
2019-03-27T12:11:56.082Z,10.70
2019-03-27T12:13:00.925Z,10.70
2019-03-27T12:14:05.913Z,10.60
2019-03-27T12:15:11.301Z,10.50
2019-03-27T12:16:16.258Z,10.50
2019-03-27T12:17:21.174Z,10.40
2019-03-27T12:18:25.872Z,10.30
2019-03-27T12:19:30.665Z,10.30
2019-03-27T12:20:35.414Z,10.30
2019-03-27T12:21:40.111Z,10.20
2019-03-27T12:22:57.211Z,10.40
2019-03-27T12:23:51.370Z,10.50
2019-03-27T12:24:56.125Z,10.70
2019-03-27T12:26:00.949Z,10.90
2019-03-27T12:27:05.655Z,11.10
2019-03-27T12:28:10.419Z,11.30
2019-03-27T12:29:18.007Z,11.40
2019-03-27T12:30:21.477Z,11.50
2019-03-27T12:31:26.182Z,11.60
2019-03-27T12:32:30.989Z,11.60
2019-03-27T12:33:35.649Z,11.70
2019-03-27T12:34:40.330Z,11.70
2019-03-27T12:35:45.095Z,11.80
2019-03-27T12:36:49.922Z,11.90
2019-03-27T12:37:54.694Z,11.90
2019-03-27T12:38:59.535Z,11.90
2019-03-27T12:40:11.373Z,11.80
2019-03-27T12:41:11.399Z,11.80
2019-03-27T12:42:16.241Z,11.80
2019-03-27T12:43:20.999Z,11.70
2019-03-27T12:44:25.691Z,11.60
2019-03-27T12:45:30.373Z,11.50
2019-03-27T12:46:35.155Z,11.40
2019-03-27T12:47:39.838Z,11.30
2019-03-27T12:48:44.567Z,11.20
2019-03-27T12:49:51.842Z,11.20
2019-03-27T12:50:55.991Z,11.20
2019-03-27T12:52:00.775Z,11.10
2019-03-27T12:53:05.923Z,11.10
2019-03-27T12:54:10.739Z,11.20
2019-03-27T12:55:15.518Z,11.20
2019-03-27T12:56:20.549Z,11.20
2019-03-27T12:57:25.574Z,11.10
2019-03-27T12:58:30.375Z,11.10
2019-03-27T12:59:35.061Z,11.10
2019-03-27T13:00:39.781Z,11.00
2019-03-27T13:01:44.581Z,11.00
2019-03-27T13:02:49.307Z,10.90
2019-03-27T13:03:54.185Z,11.00
2019-03-27T13:04:58.933Z,11.00
2019-03-27T13:06:04.014Z,11.10
2019-03-27T13:07:08.850Z,11.10
2019-03-27T13:08:13.605Z,11.10
2019-03-27T13:09:18.435Z,11.10
2019-03-27T13:10:23.245Z,11.10
2019-03-27T13:11:27.914Z,11.10
2019-03-27T13:12:32.631Z,11.10
2019-03-27T13:13:37.421Z,11.20
2019-03-27T13:14:42.129Z,11.20
2019-03-27T13:15:46.855Z,11.20
2019-03-27T13:16:52.423Z,11.20
2019-03-27T13:17:57.285Z,11.20
2019-03-27T13:19:02.114Z,11.20
2019-03-27T13:20:08.172Z,11.20
2019-03-27T13:21:25.313Z,11.20
2019-03-27T13:22:19.551Z,11.30
2019-03-27T13:23:24.396Z,11.30
2019-03-27T13:24:29.155Z,11.30
2019-03-27T13:25:34.057Z,11.30
2019-03-27T13:26:38.718Z,11.30
2019-03-27T13:27:43.744Z,11.30
2019-03-27T13:28:49.363Z,11.30
2019-03-27T13:29:54.532Z,11.30
2019-03-27T13:30:59.384Z,11.30
2019-03-27T13:32:04.245Z,11.30
2019-03-27T13:33:09.017Z,11.30
2019-03-27T13:34:13.715Z,11.30
2019-03-27T13:35:18.423Z,11.30
2019-03-27T13:36:23.111Z,11.30
2019-03-27T13:37:27.787Z,11.30
2019-03-27T13:38:32.577Z,11.30
2019-03-27T13:39:37.665Z,11.30
2019-03-27T13:40:42.465Z,11.30
2019-03-27T13:41:47.171Z,11.30
2019-03-27T13:42:51.916Z,11.30
2019-03-27T13:43:56.624Z,11.30
2019-03-27T13:45:01.344Z,11.20
2019-03-27T13:46:06.264Z,11.30
2019-03-27T13:47:11.170Z,11.30
2019-03-27T13:48:16.093Z,11.30
2019-03-27T13:49:20.795Z,11.30
2019-03-27T13:50:25.574Z,11.30
2019-03-27T13:51:40.404Z,11.30
2019-03-27T13:52:36.829Z,11.30
2019-03-27T13:53:41.552Z,11.40
2019-03-27T13:54:46.389Z,11.40
2019-03-27T13:55:51.104Z,11.30
2019-03-27T13:56:55.846Z,11.30
2019-03-27T13:58:00.641Z,11.30
2019-03-27T13:59:05.387Z,11.20
2019-03-27T14:00:11.894Z,11.30
2019-03-27T14:01:16.605Z,11.30
2019-03-27T14:02:21.323Z,11.30
2019-03-27T14:03:26.157Z,11.30
2019-03-27T14:04:31.039Z,11.30
2019-03-27T14:05:35.873Z,11.30
2019-03-27T14:06:40.668Z,11.20
2019-03-27T14:07:45.479Z,11.20
2019-03-27T14:08:50.249Z,11.20
2019-03-27T14:09:55.233Z,11.20
2019-03-27T14:10:59.923Z,11.20
2019-03-27T14:12:04.706Z,11.10
2019-03-27T14:13:09.572Z,11.10
2019-03-27T14:14:14.400Z,11.10
2019-03-27T14:15:19.536Z,11.20
2019-03-27T14:16:24.360Z,11.20
2019-03-27T14:17:29.188Z,11.20